createdAt,value
2019-05-12T00:00:53.429Z,11.24
2019-05-12T00:03:22.809Z,11.19
2019-05-12T00:05:52.244Z,11.15
2019-05-12T00:08:21.810Z,11.13
2019-05-12T00:10:52.176Z,11.10
2019-05-12T00:13:22.297Z,11.07
2019-05-12T00:15:52.040Z,11.04
2019-05-12T00:18:22.050Z,11.01
2019-05-12T00:20:52.252Z,10.98
2019-05-12T00:23:27.033Z,10.95
2019-05-12T00:25:53.451Z,10.91
2019-05-12T00:28:22.818Z,10.88
2019-05-12T00:30:52.270Z,10.85
2019-05-12T00:33:22.171Z,10.82
2019-05-12T00:35:52.309Z,10.78
2019-05-12T00:38:22.313Z,10.72
2019-05-12T00:40:52.419Z,10.68
2019-05-12T00:43:22.420Z,10.64
2019-05-12T00:45:52.375Z,10.60
2019-05-12T00:48:22.392Z,10.57
2019-05-12T00:50:52.502Z,10.54
2019-05-12T00:53:36.155Z,10.51
2019-05-12T00:55:54.000Z,10.48
2019-05-12T00:58:23.443Z,10.45
2019-05-12T01:00:52.825Z,10.42
2019-05-12T01:03:22.577Z,10.38
2019-05-12T01:05:52.704Z,10.37
2019-05-12T01:08:22.711Z,10.34
2019-05-12T01:10:52.746Z,10.34
2019-05-12T01:13:22.851Z,10.31
2019-05-12T01:15:53.049Z,10.27
2019-05-12T01:18:22.995Z,10.25
2019-05-12T01:20:53.244Z,10.22
2019-05-12T01:23:23.697Z,10.19
2019-05-12T01:25:53.177Z,10.13
2019-05-12T01:28:23.392Z,10.11
2019-05-12T01:30:54.795Z,10.07
2019-05-12T01:33:24.453Z,10.05
2019-05-12T01:35:54.160Z,10.01
2019-05-12T01:38:23.785Z,9.98
2019-05-12T01:40:53.793Z,9.94
2019-05-12T01:43:23.349Z,9.92
2019-05-12T01:45:53.367Z,9.90
2019-05-12T01:48:23.794Z,9.88
2019-05-12T01:50:53.505Z,9.86
2019-05-12T01:53:23.524Z,9.83
2019-05-12T01:55:53.793Z,9.81
2019-05-12T01:58:23.555Z,9.78
2019-05-12T02:00:53.560Z,9.76
2019-05-12T02:03:23.710Z,9.72
2019-05-12T02:05:57.795Z,9.70
2019-05-12T02:08:28.073Z,9.66
2019-05-12T02:11:29.971Z,9.65
2019-05-12T02:13:59.717Z,9.58
2019-05-12T02:16:29.436Z,9.52
2019-05-12T02:18:58.813Z,9.48
2019-05-12T02:21:28.183Z,9.46
2019-05-12T02:23:58.304Z,9.42
2019-05-12T02:26:29.077Z,9.40
2019-05-12T02:28:58.740Z,9.39
2019-05-12T02:31:29.428Z,9.37
2019-05-12T02:33:59.178Z,9.36
2019-05-12T02:36:28.543Z,9.33
2019-05-12T02:38:58.253Z,9.36
2019-05-12T02:41:27.652Z,9.37
2019-05-12T02:43:57.086Z,9.41
2019-05-12T02:46:26.764Z,9.42
2019-05-12T02:48:56.223Z,9.49
2019-05-12T02:51:25.644Z,9.54
2019-05-12T02:53:56.317Z,9.57
2019-05-12T02:56:27.513Z,9.63
2019-05-12T02:58:58.084Z,9.68
2019-05-12T03:01:29.677Z,9.73
2019-05-12T03:04:05.397Z,9.79
2019-05-12T03:06:36.104Z,9.84
2019-05-12T03:09:07.915Z,9.91
2019-05-12T03:11:38.017Z,9.94
2019-05-12T03:14:07.481Z,9.98
2019-05-12T03:16:36.839Z,10.05
2019-05-12T03:19:06.289Z,10.07
2019-05-12T03:21:35.994Z,10.10
2019-05-12T03:24:06.768Z,10.14
2019-05-12T03:26:36.312Z,10.17
2019-05-12T03:29:06.381Z,10.19
2019-05-12T03:31:39.930Z,10.20
2019-05-12T03:34:10.493Z,10.24
2019-05-12T03:36:41.660Z,10.25
2019-05-12T03:39:09.735Z,10.28
2019-05-12T03:41:39.130Z,10.31
2019-05-12T03:44:08.497Z,10.34
2019-05-12T03:46:37.938Z,10.39
2019-05-12T03:49:07.300Z,10.40
2019-05-12T03:51:36.768Z,10.47
2019-05-12T03:54:06.177Z,10.50
2019-05-12T03:56:35.925Z,10.52
2019-05-12T03:59:05.942Z,10.55
2019-05-12T04:01:36.614Z,10.57
2019-05-12T04:04:06.328Z,10.62
2019-05-12T04:06:35.832Z,10.65
2019-05-12T04:09:08.596Z,10.68
2019-05-12T04:11:38.608Z,10.68
2019-05-12T04:14:08.046Z,10.72
2019-05-12T04:16:37.441Z,10.76
2019-05-12T04:19:06.801Z,10.82
2019-05-12T04:21:36.181Z,10.82
2019-05-12T04:24:06.245Z,10.86
2019-05-12T04:26:36.647Z,10.90
2019-05-12T04:29:06.749Z,10.91
2019-05-12T04:31:37.426Z,10.93
2019-05-12T04:34:06.800Z,10.97
2019-05-12T04:36:36.177Z,10.98
2019-05-12T04:39:07.570Z,11.01
2019-05-12T04:41:37.213Z,11.00
2019-05-12T04:44:06.842Z,11.01
2019-05-12T04:46:36.224Z,11.02
2019-05-12T04:49:05.841Z,11.04
2019-05-12T04:51:35.546Z,11.06
2019-05-12T04:54:06.025Z,11.09
2019-05-12T04:56:36.371Z,11.13
2019-05-12T04:59:05.825Z,11.17
2019-05-12T05:01:35.491Z,11.22
2019-05-12T05:04:06.013Z,11.28
2019-05-12T05:06:36.221Z,11.33
2019-05-12T05:09:08.302Z,11.40
2019-05-12T05:11:37.697Z,11.47
2019-05-12T05:14:07.128Z,11.52
2019-05-12T05:16:36.491Z,11.57
2019-05-12T05:19:05.861Z,11.63
2019-05-12T05:21:35.397Z,11.69
2019-05-12T05:24:04.815Z,11.73
2019-05-12T05:26:37.306Z,11.80
2019-05-12T05:29:05.597Z,11.86
2019-05-12T05:31:35.316Z,11.93
2019-05-12T05:34:05.147Z,12.00
2019-05-12T05:36:34.890Z,12.06
2019-05-12T05:39:07.545Z,12.15
2019-05-12T05:41:43.459Z,12.24
2019-05-12T05:44:08.023Z,12.32
2019-05-12T05:46:38.983Z,12.41
2019-05-12T05:49:08.505Z,12.56
2019-05-12T05:51:39.679Z,12.76
2019-05-12T05:54:08.988Z,12.93
2019-05-12T05:56:42.689Z,13.17
2019-05-12T05:59:09.472Z,13.55
2019-05-12T06:01:40.155Z,14.17
2019-05-12T06:04:10.032Z,15.06
2019-05-12T06:06:44.322Z,16.06
2019-05-12T06:09:10.532Z,16.93
2019-05-12T06:11:39.896Z,17.49
2019-05-12T06:14:14.035Z,18.09
2019-05-12T06:16:40.714Z,18.78
2019-05-12T06:19:10.099Z,19.27
2019-05-12T06:21:39.466Z,19.52
2019-05-12T06:24:14.166Z,19.60
2019-05-12T06:26:54.589Z,19.76
2019-05-12T06:29:19.144Z,19.72
2019-05-12T06:31:44.183Z,19.68
2019-05-12T06:34:20.390Z,19.86
2019-05-12T06:36:44.812Z,20.24
2019-05-12T06:39:19.108Z,20.56
2019-05-12T06:41:45.368Z,20.72
2019-05-12T06:44:19.151Z,20.88
2019-05-12T06:46:45.855Z,20.80
2019-05-12T06:49:17.458Z,20.58
2019-05-12T06:51:46.900Z,20.32
2019-05-12T06:54:16.280Z,20.06
2019-05-12T06:56:50.164Z,19.68
2019-05-12T06:59:16.764Z,19.23
2019-05-12T07:01:49.915Z,18.76
2019-05-12T07:04:17.250Z,18.30
2019-05-12T07:06:49.874Z,18.11
2019-05-12T07:09:24.926Z,18.06
2019-05-12T07:11:58.869Z,18.17
2019-05-12T07:14:23.239Z,18.21
2019-05-12T07:17:01.351Z,18.18
2019-05-12T07:19:25.583Z,18.16
2019-05-12T07:21:58.873Z,18.34
2019-05-12T07:24:26.293Z,18.60
2019-05-12T07:27:04.371Z,18.99
2019-05-12T07:29:26.772Z,19.66
2019-05-12T07:31:56.178Z,20.30
2019-05-12T07:34:26.159Z,20.80
2019-05-12T07:36:58.362Z,21.13
2019-05-12T07:39:29.645Z,21.46
2019-05-12T07:42:03.591Z,21.87
2019-05-12T07:44:40.078Z,22.44
2019-05-12T07:47:07.778Z,22.99
2019-05-12T07:49:38.594Z,23.52
2019-05-12T07:52:08.474Z,23.85
2019-05-12T07:54:39.571Z,24.00
2019-05-12T07:57:12.585Z,23.76
2019-05-12T07:59:41.149Z,23.53
2019-05-12T08:02:10.633Z,22.95
2019-05-12T08:04:41.154Z,21.94
2019-05-12T08:07:10.919Z,20.95
2019-05-12T08:09:40.551Z,20.20
2019-05-12T08:12:19.429Z,19.54
2019-05-12T08:14:41.059Z,19.24
2019-05-12T08:17:18.610Z,19.00
2019-05-12T08:19:44.254Z,18.61
2019-05-12T08:22:13.592Z,18.36
2019-05-12T08:24:47.920Z,18.72
2019-05-12T08:27:14.413Z,19.29
2019-05-12T08:29:43.737Z,19.90
2019-05-12T08:32:15.946Z,20.42
2019-05-12T08:34:44.296Z,21.01
2019-05-12T08:37:14.082Z,21.47
2019-05-12T08:39:44.340Z,21.91
2019-05-12T08:42:14.514Z,22.06
2019-05-12T08:44:44.096Z,21.84
2019-05-12T08:47:15.197Z,21.54
2019-05-12T08:49:53.383Z,21.00
2019-05-12T08:52:15.842Z,20.48
2019-05-12T08:54:49.272Z,20.65
2019-05-12T08:57:16.349Z,21.05
2019-05-12T08:59:45.806Z,21.62
2019-05-12T09:02:15.247Z,22.07
2019-05-12T09:04:51.337Z,21.93
2019-05-12T09:07:16.468Z,21.79
2019-05-12T09:09:45.805Z,21.97
2019-05-12T09:12:15.188Z,22.40
2019-05-12T09:14:46.155Z,22.71
2019-05-12T09:17:15.825Z,22.88
2019-05-12T09:19:45.223Z,23.04
2019-05-12T09:22:20.372Z,23.29
2019-05-12T09:24:45.690Z,23.35
2019-05-12T09:27:15.075Z,23.04
2019-05-12T09:29:44.447Z,22.68
2019-05-12T09:32:14.505Z,22.36
2019-05-12T09:34:52.613Z,22.04
2019-05-12T09:37:15.490Z,21.75
2019-05-12T09:39:47.329Z,21.34
2019-05-12T09:42:19.196Z,20.82
2019-05-12T09:44:47.071Z,20.35
2019-05-12T09:47:23.283Z,20.09
2019-05-12T09:49:47.548Z,20.00
2019-05-12T09:52:22.123Z,19.85
2019-05-12T09:54:48.112Z,19.57
2019-05-12T09:57:17.479Z,19.31
2019-05-12T09:59:57.336Z,19.33
2019-05-12T10:02:20.752Z,19.78
2019-05-12T10:05:00.552Z,20.32
2019-05-12T10:07:26.949Z,20.74
2019-05-12T10:09:58.937Z,20.82
2019-05-12T10:12:29.690Z,20.60
2019-05-12T10:14:58.599Z,20.25
2019-05-12T10:17:30.179Z,19.93
2019-05-12T10:19:59.344Z,19.93
2019-05-12T10:22:37.773Z,20.19
2019-05-12T10:25:07.175Z,20.56
2019-05-12T10:27:36.781Z,20.79
2019-05-12T10:30:12.659Z,20.76
2019-05-12T10:32:43.645Z,20.48
2019-05-12T10:35:20.965Z,20.26
2019-05-12T10:37:47.258Z,20.39
2019-05-12T10:40:17.708Z,20.95
2019-05-12T10:42:49.483Z,21.63
2019-05-12T10:45:20.914Z,22.09
2019-05-12T10:47:51.081Z,22.10
2019-05-12T10:50:20.598Z,21.82
2019-05-12T10:52:49.965Z,21.75
2019-05-12T10:55:19.425Z,21.77
2019-05-12T10:57:54.942Z,21.63
2019-05-12T11:00:25.302Z,21.28
2019-05-12T11:02:53.352Z,21.09
2019-05-12T11:05:25.887Z,21.14
2019-05-12T11:07:53.996Z,21.31
2019-05-12T11:10:23.786Z,21.51
2019-05-12T11:12:53.237Z,21.62
2019-05-12T11:15:26.797Z,21.56
2019-05-12T11:17:57.996Z,21.41
2019-05-12T11:20:27.396Z,21.23
2019-05-12T11:22:56.840Z,21.20
2019-05-12T11:25:45.893Z,21.34
2019-05-12T11:28:15.306Z,21.67
2019-05-12T11:30:44.697Z,21.84
2019-05-12T11:33:14.308Z,22.07
2019-05-12T11:35:44.117Z,22.30
2019-05-12T11:38:13.666Z,22.56
2019-05-12T11:40:43.807Z,22.88
2019-05-12T11:43:14.366Z,23.00
2019-05-12T11:45:44.300Z,22.71
2019-05-12T11:48:14.532Z,22.29
2019-05-12T11:50:49.442Z,21.83
2019-05-12T11:53:15.296Z,21.48
2019-05-12T11:55:44.700Z,21.27
2019-05-12T11:58:14.063Z,21.15
2019-05-12T12:00:48.065Z,21.11
2019-05-12T12:03:18.329Z,21.17
2019-05-12T12:05:47.908Z,21.23
2019-05-12T12:08:17.306Z,21.26
2019-05-12T12:10:49.190Z,21.24
2019-05-12T12:13:19.345Z,21.19
2019-05-12T12:15:49.398Z,21.22
2019-05-12T12:18:19.093Z,21.27
2019-05-12T12:20:48.716Z,21.32
2019-05-12T12:23:18.091Z,21.35
2019-05-12T12:25:48.527Z,21.36
2019-05-12T12:28:18.605Z,21.21
2019-05-12T12:30:52.577Z,20.92
2019-05-12T12:33:19.167Z,20.56
2019-05-12T12:35:50.417Z,20.24
2019-05-12T12:38:20.044Z,19.87
2019-05-12T12:40:49.756Z,19.59
2019-05-12T12:43:19.137Z,19.41
2019-05-12T12:45:50.176Z,19.37
2019-05-12T12:48:27.803Z,19.37
2019-05-12T12:50:53.415Z,19.30
2019-05-12T12:53:23.862Z,19.13
2019-05-12T12:55:53.969Z,18.96
2019-05-12T12:58:26.880Z,18.79
2019-05-12T13:00:56.948Z,18.65
2019-05-12T13:03:29.906Z,18.59
2019-05-12T13:05:57.137Z,18.55
2019-05-12T13:08:26.518Z,18.59
2019-05-12T13:10:55.953Z,18.72
2019-05-12T13:13:25.326Z,18.83
2019-05-12T13:15:54.698Z,18.87
2019-05-12T13:18:32.569Z,18.79
2019-05-12T13:20:58.039Z,18.63
2019-05-12T13:23:36.801Z,18.45
2019-05-12T13:25:57.704Z,18.28
2019-05-12T13:28:27.040Z,18.13
2019-05-12T13:31:08.239Z,17.93
2019-05-12T13:33:27.542Z,17.74
2019-05-12T13:35:57.567Z,17.63
2019-05-12T13:38:30.310Z,17.62
2019-05-12T13:40:58.203Z,17.75
2019-05-12T13:43:27.587Z,17.94
2019-05-12T13:45:56.957Z,18.15
2019-05-12T13:48:26.358Z,18.33
2019-05-12T13:51:07.182Z,18.38
2019-05-12T13:53:26.860Z,18.43
2019-05-12T13:55:56.256Z,18.45
2019-05-12T13:58:28.169Z,18.44
2019-05-12T14:03:28.374Z,18.39
2019-05-12T14:05:57.754Z,18.34
2019-05-12T14:08:27.113Z,18.28
2019-05-12T14:10:59.363Z,18.23
2019-05-12T14:13:27.618Z,18.18
2019-05-12T14:15:57.376Z,18.21
2019-05-12T14:18:27.083Z,18.27
2019-05-12T14:21:00.633Z,18.43
2019-05-12T14:23:30.074Z,18.55
2019-05-12T14:26:02.314Z,18.63
2019-05-12T14:28:30.623Z,18.68
2019-05-12T14:31:02.580Z,18.69
2019-05-12T14:33:37.533Z,18.65
2019-05-12T14:36:04.118Z,18.56
2019-05-12T14:38:33.906Z,18.48
2019-05-12T14:41:09.976Z,18.41
2019-05-12T14:43:34.486Z,18.39
2019-05-12T14:46:06.210Z,18.42
2019-05-12T14:48:35.127Z,18.43
2019-05-12T14:51:04.745Z,18.46
2019-05-12T14:53:38.226Z,18.50
2019-05-12T14:56:06.452Z,18.55
2019-05-12T14:58:36.378Z,18.59
2019-05-12T15:01:06.428Z,18.64
2019-05-12T15:03:36.477Z,18.68
2019-05-12T15:06:07.703Z,18.73
2019-05-12T15:08:40.375Z,18.78
2019-05-12T15:11:08.341Z,18.84
2019-05-12T15:13:37.777Z,18.88
2019-05-12T15:16:07.131Z,18.88
2019-05-12T15:18:39.459Z,18.90
2019-05-12T15:21:07.753Z,18.86
2019-05-12T15:23:37.600Z,18.80
2019-05-12T15:26:09.614Z,18.77
2019-05-12T15:28:38.054Z,18.73
2019-05-12T15:31:07.769Z,18.65
2019-05-12T15:33:37.182Z,18.60
2019-05-12T15:36:06.883Z,18.57
2019-05-12T15:38:37.028Z,18.53
2019-05-12T15:41:10.760Z,18.46
2019-05-12T15:43:44.231Z,18.34
2019-05-12T15:46:09.158Z,18.24
2019-05-12T15:48:38.555Z,18.17
2019-05-12T15:51:08.716Z,18.14
2019-05-12T15:53:38.307Z,18.11
2019-05-12T15:56:14.813Z,18.09
2019-05-12T15:58:39.073Z,18.09
2019-05-12T16:01:08.441Z,18.09
2019-05-12T16:03:37.884Z,18.11
2019-05-12T16:06:11.828Z,18.12
2019-05-12T16:08:38.548Z,18.10
2019-05-12T16:11:07.924Z,18.11
2019-05-12T16:13:37.601Z,18.16
2019-05-12T16:16:07.874Z,18.23
2019-05-12T16:18:40.456Z,18.26
2019-05-12T16:21:09.423Z,18.26
2019-05-12T16:23:38.939Z,18.23
2019-05-12T16:26:12.486Z,18.16
2019-05-12T16:28:40.022Z,18.12
2019-05-12T16:31:09.399Z,18.09
2019-05-12T16:33:39.032Z,18.05
2019-05-12T16:36:11.516Z,18.03
2019-05-12T16:38:39.519Z,18.00
2019-05-12T16:41:08.897Z,18.02
2019-05-12T16:43:38.308Z,17.97
2019-05-12T16:46:08.236Z,17.92
2019-05-12T16:48:42.280Z,17.84
2019-05-12T16:51:09.642Z,17.77
2019-05-12T16:53:39.013Z,17.70
2019-05-12T16:56:08.691Z,17.65
2019-05-12T16:58:38.318Z,17.61
2019-05-12T17:01:08.361Z,17.60
2019-05-12T17:03:38.380Z,17.56
2019-05-12T17:06:08.761Z,17.54
2019-05-12T17:08:38.428Z,17.53
2019-05-12T17:11:24.201Z,17.50
2019-05-12T17:13:39.567Z,17.48
2019-05-12T17:16:09.234Z,17.48
2019-05-12T17:18:39.548Z,17.46
2019-05-12T17:21:08.934Z,17.46
2019-05-12T17:23:38.740Z,17.49
2019-05-12T17:26:09.175Z,17.51
2019-05-12T17:28:38.776Z,17.53
2019-05-12T17:31:08.792Z,17.55
2019-05-12T17:33:39.351Z,17.55
2019-05-12T17:36:17.151Z,17.54
2019-05-12T17:38:40.198Z,17.52
2019-05-12T17:41:09.614Z,17.52
2019-05-12T17:43:45.131Z,17.52
2019-05-12T17:46:13.471Z,17.50
2019-05-12T17:48:42.841Z,17.47
2019-05-12T17:51:13.675Z,17.43
2019-05-12T17:53:43.467Z,17.38
2019-05-12T17:56:13.939Z,17.32
2019-05-12T17:58:46.927Z,17.26
2019-05-12T18:01:14.554Z,17.22
2019-05-12T18:03:48.771Z,17.19
2019-05-12T18:06:15.125Z,17.14
2019-05-12T18:08:44.487Z,17.09
2019-05-12T18:11:16.086Z,17.06
2019-05-12T18:13:45.038Z,16.97
2019-05-12T18:16:20.668Z,16.92
2019-05-12T18:18:45.520Z,16.86
2019-05-12T18:21:21.446Z,16.80
2019-05-12T18:23:46.106Z,16.75
2019-05-12T18:26:16.487Z,16.69
2019-05-12T18:28:45.947Z,16.62
2019-05-12T18:31:15.658Z,16.55
2019-05-12T18:33:52.020Z,16.47
2019-05-12T18:36:16.217Z,16.36
2019-05-12T18:38:45.636Z,16.26
2019-05-12T18:41:15.330Z,16.18
2019-05-12T18:43:44.711Z,16.11
2019-05-12T18:46:14.301Z,16.04
2019-05-12T18:48:54.254Z,15.97
2019-05-12T18:51:20.950Z,15.88
2019-05-12T18:53:53.992Z,15.80
2019-05-12T18:56:24.819Z,15.74
2019-05-12T18:58:54.615Z,15.65
2019-05-12T19:01:24.600Z,15.59
2019-05-12T19:03:54.904Z,15.53
2019-05-12T19:06:24.587Z,15.46
2019-05-12T19:08:54.117Z,15.40
2019-05-12T19:11:31.495Z,15.32
2019-05-12T19:13:57.109Z,15.25
2019-05-12T19:16:25.702Z,15.15
2019-05-12T19:18:55.826Z,15.06
2019-05-12T19:21:25.362Z,15.00
2019-05-12T19:23:54.736Z,14.93
2019-05-12T19:26:24.109Z,14.85
2019-05-12T19:28:57.938Z,14.78
2019-05-12T19:31:24.980Z,14.70
2019-05-12T19:34:14.437Z,14.64
2019-05-12T19:36:25.757Z,14.55
2019-05-12T19:38:55.147Z,14.48
2019-05-12T19:41:24.701Z,14.39
2019-05-12T19:43:54.425Z,14.32
2019-05-12T19:46:24.189Z,14.23
2019-05-12T19:48:54.097Z,14.17
2019-05-12T19:51:27.714Z,14.09
2019-05-12T19:54:14.176Z,14.00
2019-05-12T19:56:45.155Z,13.90
2019-05-12T19:59:14.788Z,13.85
2019-05-12T20:01:44.624Z,13.79
2019-05-12T20:04:22.912Z,13.72
2019-05-12T20:06:45.454Z,13.66
2019-05-12T20:09:14.929Z,13.60
2019-05-12T20:11:44.304Z,13.53
2019-05-12T20:14:16.670Z,13.49
2019-05-12T20:16:44.791Z,13.43
2019-05-12T20:19:14.243Z,13.38
2019-05-12T20:21:43.959Z,13.32
2019-05-12T20:24:15.059Z,13.28
2019-05-12T20:26:44.678Z,13.23
2019-05-12T20:29:14.052Z,13.20
2019-05-12T20:31:48.418Z,13.18
2019-05-12T20:34:14.612Z,13.15
2019-05-12T20:36:44.513Z,13.14
2019-05-12T20:39:17.138Z,13.15
2019-05-12T20:41:45.073Z,13.14
2019-05-12T20:44:17.136Z,13.14
2019-05-12T20:46:45.813Z,13.17
2019-05-12T20:49:15.197Z,13.18
2019-05-12T20:51:46.501Z,13.18
2019-05-12T20:54:18.024Z,13.18
2019-05-12T20:56:46.876Z,13.18
2019-05-12T20:59:21.940Z,13.19
2019-05-12T21:01:47.356Z,13.19
2019-05-12T21:04:22.067Z,13.20
2019-05-12T21:06:48.616Z,13.21
2019-05-12T21:09:18.082Z,13.22
2019-05-12T21:11:47.458Z,13.22
2019-05-12T21:14:16.851Z,13.21
2019-05-12T21:16:46.238Z,13.22
2019-05-12T21:19:15.613Z,13.21
2019-05-12T21:21:45.010Z,13.23
2019-05-12T21:24:14.713Z,13.26
2019-05-12T21:26:44.232Z,13.28
2019-05-12T21:29:13.870Z,13.28
2019-05-12T21:31:44.554Z,13.31
2019-05-12T21:34:21.178Z,13.36
2019-05-12T21:36:45.183Z,13.39
2019-05-12T21:39:14.548Z,13.43
2019-05-12T21:41:47.390Z,13.43
2019-05-12T21:44:15.034Z,13.43
2019-05-12T21:46:57.451Z,13.43
2019-05-12T21:49:15.883Z,13.43
2019-05-12T21:51:50.319Z,13.41
2019-05-12T21:54:16.475Z,13.39
2019-05-12T21:56:49.333Z,13.36
2019-05-12T21:59:16.956Z,13.34
2019-05-12T22:01:47.377Z,13.31
2019-05-12T22:04:16.981Z,13.31
2019-05-12T22:06:51.405Z,13.30
2019-05-12T22:09:17.697Z,13.28
2019-05-12T22:11:50.889Z,13.28
2019-05-12T22:14:18.178Z,13.25
2019-05-12T22:16:49.208Z,13.23
2019-05-12T22:19:18.659Z,13.20
2019-05-12T22:21:49.604Z,13.16
2019-05-12T22:24:19.059Z,13.12
2019-05-12T22:26:48.447Z,13.08
2019-05-12T22:29:21.137Z,13.02
2019-05-12T22:31:49.003Z,12.99
2019-05-12T22:34:18.457Z,12.92
2019-05-12T22:36:55.208Z,12.87
2019-05-12T22:39:18.943Z,12.82
2019-05-12T22:41:48.619Z,12.76
2019-05-12T22:44:20.798Z,12.72
2019-05-12T22:46:49.106Z,12.68
2019-05-12T22:49:21.092Z,12.63
2019-05-12T22:51:54.553Z,12.58
2019-05-12T22:54:20.955Z,12.51
2019-05-12T22:56:55.119Z,12.47
2019-05-12T22:59:23.977Z,12.42
2019-05-12T23:01:54.159Z,12.37
2019-05-12T23:04:25.993Z,12.32
2019-05-12T23:06:54.766Z,12.28
2019-05-12T23:09:43.627Z,12.23
2019-05-12T23:12:18.493Z,12.20
2019-05-12T23:14:45.166Z,12.17
2019-05-12T23:17:14.547Z,12.15
2019-05-12T23:19:51.469Z,12.14
2019-05-12T23:22:15.158Z,12.11
2019-05-12T23:24:44.607Z,12.09
2019-05-12T23:27:13.989Z,12.05
2019-05-12T23:29:44.452Z,12.02
2019-05-12T23:32:14.988Z,11.99
2019-05-12T23:34:53.063Z,11.96
2019-05-12T23:37:15.701Z,11.90
2019-05-12T23:39:45.097Z,11.85
2019-05-12T23:42:14.439Z,11.80
2019-05-12T23:44:44.531Z,11.73
2019-05-12T23:47:14.564Z,11.67
2019-05-12T23:49:44.509Z,11.61
2019-05-12T23:52:14.562Z,11.55
2019-05-12T23:54:44.552Z,11.48
2019-05-12T23:57:15.692Z,11.45
2019-05-12T23:59:45.196Z,11.40
